Latest Weather Observations for Mangalore

IDV60801

Issued at 9:02 am EST Tuesday 30 June 2015 (issued every 30 minutes, with the page automatically refreshed every 10 minutes)

About weather observations | Map of weather stations | Latest weather observations for VIC | Other Formats
Station Details ID: 088109 Name: MANGALORE AIRPORT Lat: -36.89 Lon: 145.19 Height: 140.8 m
Data from the previous 72 hours. | See also: Recent months at Mangalore
Date/Time
EST
Temp
°C
App
Temp
°C
Dew
Point
Rel
Hum
%
Delta-T
°C
Wind Press
QNH
hPa
Press
MSL
hPa
Rain
since 9 am
mm
Dir
 
Spd
km/h
Gust
km/h
Spd
kts
Gust
kts
30/09:00am 0.1 -1.9 0.0 99 0.0 CALM 0 0 0 0 1029.5 1029.8 0.0
30/08:30am 0.0 -2.0 -0.1 99 0.0 CALM 0 0 0 0 1029.2 1029.5 0.0
30/08:00am -0.5 -2.6 -0.6 99 0.0 CALM 0 0 0 0 1029.0 1029.3 0.0
30/07:30am -1.0 -3.5 -1.1 99 0.0 SSW 2 6 1 3 1028.6 1028.9 0.0
30/07:00am -0.2 -3.0 -0.3 99 0.0 SSW 4 7 2 4 1028.3 1028.6 0.0
30/06:30am -0.6 -2.7 -0.7 99 0.0 CALM 0 0 0 0 1028.4 1028.7 0.0
30/06:00am 0.4 -2.9 0.3 99 0.0 SSW 7 9 4 5 1028.3 1028.6 0.0
30/05:31am 1.1 -2.1 1.0 99 0.0 SSW 7 9 4 5 1028.4 1028.7 0.0
30/05:30am 1.1 -2.1 1.0 99 0.0 SSW 7 9 4 5 1028.3 1028.6 0.0
30/05:00am 1.2 -2.3 1.1 99 0.0 SSW 9 11 5 6 1028.3 1028.6 0.0
30/04:30am 1.0 -2.2 0.9 99 0.0 SSW 7 9 4 5 1028.3 1028.6 0.0
30/04:00am 0.4 -2.7 0.3 99 0.0 SSW 6 11 3 6 1028.3 1028.6 0.0
30/03:51am 1.6 -2.2 1.5 99 0.0 S 11 13 6 7 1028.4 1028.7 0.0
30/03:30am 0.6 -2.6 0.5 99 0.0 S 7 11 4 6 1028.6 1028.9 0.0
30/03:00am 0.8 -3.2 0.7 99 0.0 SSW 11 13 6 7 1028.5 1028.8 0.0
30/02:30am -0.4 -3.8 -0.5 99 0.0 SSW 7 9 4 5 1028.6 1028.9 0.0
30/02:00am -1.0 -3.1 -1.1 99 0.0 CALM 0 0 0 0 1028.7 1029.0 0.0
30/01:55am -1.1 -3.3 -1.2 99 0.0 CALM 0 0 0 0 1028.7 1029.0 0.0
30/01:30am 1.3 -0.5 1.2 99 0.0 CALM 0 0 0 0 1028.7 1029.0 0.0
30/01:00am 2.9 0.0 2.8 99 0.0 SSW 7 11 4 6 1028.7 1029.0 0.0
30/12:30am 3.2 -0.8 3.1 99 0.0 SSW 13 15 7 8 1028.8 1029.1 0.0
30/12:00am 3.7 0.2 3.6 99 0.0 SSW 11 17 6 9 1029.0 1029.3 0.0
 
Date/Time
EST
Temp
°C
App
Temp
°C
Dew
Point
Rel
Hum
%
Delta-T
°C
Wind Press
QNH
hPa
Press
MSL
hPa
Rain
since 9 am
mm
Dir
 
Spd
km/h
Gust
km/h
Spd
kts
Gust
kts
29/11:30pm 2.8 -0.8 2.7 99 0.0 SW 11 11 6 6 1029.2 1029.5 0.0
29/11:13pm 2.8 -0.5 2.7 99 0.0 SSW 9 11 5 6 1029.2 1029.5 0.0
29/11:00pm 2.9 -0.3 2.8 99 0.0 SSW 9 11 5 6 1029.3 1029.6 0.0
29/10:30pm 3.3 -0.6 3.2 99 0.0 SSW 13 15 7 8 1029.3 1029.6 0.0
29/10:01pm 2.4 -0.9 2.3 99 0.0 N 9 13 5 7 1029.5 1029.8 0.0
29/10:00pm 2.0 -1.4 1.9 99 0.0 N 9 13 5 7 1029.5 1029.8 0.0
29/09:30pm 1.0 -1.3 0.4 96 0.2 N 2 7 1 4 1029.6 1029.9 0.0
29/09:27pm 1.3 -1.3 1.0 98 0.1 N 4 7 2 4 1029.6 1029.9 0.0
29/09:00pm 2.7 0.0 2.4 98 0.1 N 6 6 3 3 1029.8 1030.1 0.0
29/08:30pm 3.0 0.7 2.6 97 0.2 N 4 9 2 5 1029.8 1030.1 0.0
29/08:00pm 3.4 1.8 2.7 95 0.3 CALM 0 0 0 0 1029.9 1030.2 0.0
29/07:30pm 4.2 1.6 3.2 93 0.4 N 6 7 3 4 1030.0 1030.3 0.0
29/07:00pm 5.1 2.5 4.2 94 0.4 N 7 11 4 6 1030.1 1030.4 0.0
29/06:30pm 5.7 4.4 4.0 89 0.7 CALM 0 0 0 0 1030.1 1030.4 0.0
29/06:00pm 7.4 5.1 4.7 83 1.2 N 6 6 3 3 1030.1 1030.4 0.0
29/05:30pm 8.6 6.3 4.8 77 1.7 N 6 7 3 4 1030.2 1030.5 0.0
29/05:00pm 10.3 7.9 5.1 70 2.4 N 7 9 4 5 1030.3 1030.6 0.0
29/04:30pm 11.7 9.3 5.1 64 3.1 N 7 7 4 4 1030.2 1030.5 0.0
29/04:00pm 12.6 10.4 5.5 62 3.3 N 6 9 3 5 1030.4 1030.7 0.0
29/03:30pm 12.8 10.5 5.5 61 3.4 N 7 11 4 6 1030.3 1030.6 0.0
29/03:00pm 12.7 10.5 5.4 61 3.4 NNW 6 9 3 5 1030.3 1030.6 0.0
29/02:30pm 13.2 11.5 5.9 61 3.5 NNW 4 9 2 5 1030.6 1030.9 0.0
29/02:00pm 11.6 9.3 5.0 64 3.0 NNW 6 9 3 5 1030.9 1031.2 0.0
29/01:30pm 13.3 11.3 6.9 65 3.1 N 7 11 4 6 1031.4 1031.7 0.0
29/01:00pm 11.3 9.1 5.4 67 2.7 WSW 6 11 3 6 1031.5 1031.8 0.0
29/12:30pm 11.5 9.4 6.0 69 2.6 WSW 6 9 3 5 1031.8 1032.1 0.0
29/12:00pm 11.0 8.8 6.2 72 2.2 WSW 7 13 4 7 1032.3 1032.6 0.0
29/11:30am 10.3 8.3 7.0 80 1.6 WSW 7 11 4 6 1032.8 1033.1 0.0
29/11:00am 8.7 6.8 7.5 92 0.6 SW 7 11 4 6 1033.2 1033.6 0.0
29/10:30am 7.5 4.8 7.4 99 0.0 SSW 11 13 6 7 1033.2 1033.6 0.0
29/10:00am 5.9 3.8 5.8 99 0.0 SSW 6 7 3 4 1033.6 1033.9 0.0
29/09:30am 4.0 1.5 3.9 99 0.0 SSW 6 7 3 4 1033.7 1034.0 0.0
29/09:20am 3.0 0.3 2.9 99 0.0 SSW 6 7 3 4 1033.7 1034.0 0.0
29/09:10am 2.0 -0.8 1.9 99 0.0 SSW 6 7 3 4 1033.8 1034.1 0.0
29/09:00am 1.4 -1.5 1.3 99 0.0 SSW 6 7 3 4 1033.8 1034.1 0.0
29/08:46am 0.5 -2.6 0.4 99 0.0 SSW 6 9 3 5 1033.8 1034.1 0.0
29/08:30am -0.3 -2.3 -0.4 99 0.0 CALM 0 0 0 0 1033.7 1034.0 0.0
29/08:15am -0.8 -2.9 -0.9 99 0.0 CALM 0 0 0 0 1033.6 1033.9 0.0
29/08:00am -1.3 -3.5 -1.4 99 0.0 CALM 0 0 0 0 1033.6 1033.9 0.0
29/07:30am -1.2 -3.4 -1.3 99 0.0 CALM 0 0 0 0 1033.3 1033.7 0.0
29/07:00am -1.2 -3.4 -1.3 99 0.0 CALM 0 0 0 0 1033.2 1033.6 0.0
29/06:30am -0.8 -2.9 -0.9 99 0.0 CALM 0 0 0 0 1033.2 1033.6 0.0
29/06:00am -0.1 -2.1 -0.2 99 0.0 CALM 0 0 0 0 1033.2 1033.6 0.0
29/05:30am -0.5 -2.9 -0.6 99 0.0 SSW 2 6 1 3 1033.0 1033.4 0.0
29/05:04am -1.0 -4.3 -1.1 99 0.0 SSW 6 9 3 5 1032.8 1033.1 0.0
29/05:00am -1.0 -3.9 -1.1 99 0.0 SSW 4 9 2 5 1032.8 1033.1 0.0
29/04:30am 2.2 -1.2 2.1 99 0.0 SSW 9 9 5 5 1032.8 1033.1 0.0
29/04:00am 0.3 -2.4 0.2 99 0.0 SSW 4 9 2 5 1032.8 1033.1 0.0
29/03:30am 1.4 -1.5 1.3 99 0.0 SSW 6 9 3 5 1032.8 1033.1 0.0
29/03:10am 1.7 -1.4 1.6 99 0.0 SSW 7 11 4 6 1032.8 1033.1 0.0
29/03:00am 2.5 -0.8 2.4 99 0.0 SSW 9 13 5 7 1032.8 1033.1 0.0
29/02:44am 4.0 0.6 3.9 99 0.0 SSW 11 13 6 7 1032.8 1033.1 0.0
29/02:30am 3.5 0.4 3.4 99 0.0 SSW 9 13 5 7 1032.7 1033.0 0.0
29/02:23am 0.5 -3.1 0.4 99 0.0 S 9 11 5 6 1032.7 1033.0 0.0
29/02:00am 0.8 -2.2 0.7 99 0.0 S 6 7 3 4 1032.7 1033.0 0.0
29/01:33am 0.9 -1.7 0.8 99 0.0 S 4 9 2 5 1032.7 1033.0 0.0
29/01:30am 0.8 -1.5 0.7 99 0.0 S 2 9 1 5 1032.7 1033.0 0.0
29/01:16am 0.5 -2.2 0.4 99 0.0 S 4 9 2 5 1032.7 1033.0 0.0
29/01:00am 1.9 -0.6 1.8 99 0.0 S 4 11 2 6 1032.7 1033.0 0.0
29/12:51am 1.2 -0.6 1.1 99 0.0 CALM 0 0 0 0 1032.9 1033.3 0.0
29/12:30am 1.0 -2.0 0.9 99 0.0 S 6 7 3 4 1032.9 1033.3 0.0
29/12:26am 1.4 -1.7 1.3 99 0.0 S 7 9 4 5 1032.9 1033.3 0.0
29/12:00am 2.9 1.4 2.8 99 0.0 CALM 0 0 0 0 1032.9 1033.3 0.0
 
Date/Time
EST
Temp
°C
App
Temp
°C
Dew
Point
Rel
Hum
%
Delta-T
°C
Wind Press
QNH
hPa
Press
MSL
hPa
Rain
since 9 am
mm
Dir
 
Spd
km/h
Gust
km/h
Spd
kts
Gust
kts
28/11:53pm 2.6 1.0 2.5 99 0.0 CALM 0 0 0 0 1033.0 1033.4 0.0
28/11:30pm 2.3 0.6 2.0 98 0.1 CALM 0 0 0 0 1033.1 1033.5 0.0
28/11:29pm 2.3 0.6 2.0 98 0.1 CALM 0 0 0 0 1033.1 1033.5 0.0
28/11:00pm 2.2 -0.6 1.8 97 0.2 S 6 7 3 4 1033.0 1033.4 0.0
28/10:30pm 2.9 1.3 2.5 97 0.2 CALM 0 0 0 0 1033.4 1033.8 0.0
28/10:00pm 2.3 0.5 1.3 93 0.4 CALM 0 0 0 0 1033.7 1034.0 0.0
28/09:30pm 4.4 1.9 3.5 94 0.4 S 6 7 3 4 1033.6 1033.9 0.0
28/09:00pm 4.2 1.5 2.9 91 0.5 S 6 9 3 5 1033.4 1033.8 0.0
28/08:30pm 5.4 2.7 3.7 89 0.7 S 7 7 4 4 1033.6 1033.9 0.0
28/08:00pm 5.0 3.1 2.9 86 0.9 S 2 7 1 4 1033.7 1034.0 0.0
28/07:30pm 6.8 5.5 3.9 82 1.2 CALM 0 0 0 0 1033.4 1033.8 0.0
28/07:00pm 7.9 5.8 3.8 75 1.8 S 4 6 2 3 1033.4 1033.8 0.0
28/06:30pm 9.9 7.4 4.7 70 2.3 S 7 9 4 5 1033.2 1033.6 0.0
28/06:00pm 9.8 6.5 4.8 71 2.2 SSE 11 17 6 9 1033.0 1033.4 0.0
28/05:30pm 10.8 8.0 5.3 69 2.5 SSE 9 9 5 5 1033.0 1033.4 0.0
28/05:00pm 11.6 7.4 5.5 66 2.8 SSE 17 22 9 12 1032.9 1033.3 0.0
28/04:30pm 12.5 9.6 6.3 66 3.0 S 11 13 6 7 1032.9 1033.3 0.0
28/04:00pm 12.7 9.3 6.1 64 3.1 SSW 13 19 7 10 1032.8 1033.1 0.0
28/03:30pm 13.0 9.8 5.2 59 3.7 S 11 17 6 9 1032.6 1032.9 0.0
28/03:00pm 13.0 9.8 6.8 66 3.0 SSE 13 20 7 11 1032.6 1032.9 0.0
28/02:30pm 13.0 9.8 6.8 66 3.0 SSE 13 17 7 9 1032.5 1032.8 0.0
28/02:00pm 13.3 10.5 6.9 65 3.1 SSE 11 15 6 8 1032.5 1032.8 0.0
28/01:30pm 13.0 10.5 6.6 65 3.1 SSE 9 13 5 7 1032.7 1033.0 0.0
28/01:00pm 13.3 9.7 6.9 65 3.1 S 15 20 8 11 1032.9 1033.3 0.0
28/12:30pm 13.1 10.0 7.1 67 2.9 SSW 13 17 7 9 1033.2 1033.6 0.0
28/12:00pm 12.2 9.3 6.7 69 2.6 SSW 11 15 6 8 1033.7 1034.0 0.0
28/11:30am 12.2 9.9 7.3 72 2.4 SW 9 15 5 8 1034.2 1034.5 0.0
28/11:00am 11.4 9.0 7.1 75 2.1 SW 9 13 5 7 1034.5 1034.8 0.0
28/10:30am 10.2 7.3 6.7 79 1.7 WSW 11 15 6 8 1034.5 1034.8 0.0
28/10:00am 8.5 6.5 7.1 91 0.7 N 7 9 4 5 1034.5 1034.8 0.0
28/09:30am 7.8 5.9 7.7 99 0.0 N 7 9 4 5 1034.4 1034.7 0.0
28/09:00am 6.8 4.7 6.7 99 0.0 N 7 9 4 5 1034.3 1034.6 0.0
28/08:30am 6.4 4.2 6.3 99 0.0 N 7 9 4 5 1034.2 1034.5 0.0
28/08:00am 6.1 4.0 6.0 99 0.0 N 6 7 3 4 1034.1 1034.4 0.0
28/07:30am 6.0 3.7 5.9 99 0.0 N 7 9 4 5 1033.9 1034.2 0.0
28/07:00am 5.8 4.1 5.7 99 0.0 N 4 7 2 4 1033.7 1034.0 0.0
28/06:30am 6.0 3.7 5.9 99 0.0 N 7 7 4 4 1033.8 1034.1 0.0
28/06:00am 6.0 3.7 5.9 99 0.0 N 7 9 4 5 1033.4 1033.8 0.0
28/05:30am 6.1 5.2 6.0 99 0.0 CALM 0 0 0 0 1033.1 1033.5 0.0
28/05:00am 5.7 3.6 5.6 99 0.0 N 6 7 3 4 1032.9 1033.3 0.0
28/04:30am 5.9 4.9 5.8 99 0.0 CALM 0 0 0 0 1032.7 1033.0 0.0
28/04:00am 5.7 4.7 5.6 99 0.0 CALM 0 0 0 0 1032.8 1033.1 0.0
28/03:30am 5.5 3.3 5.4 99 0.0 N 6 9 3 5 1032.9 1033.3 0.0
28/03:00am 5.2 4.1 4.9 98 0.1 CALM 0 0 0 0 1033.1 1033.5 0.0
28/02:30am 4.7 2.1 4.1 96 0.3 N 7 9 4 5 1033.0 1033.4 0.0
28/02:00am 4.9 2.4 3.7 92 0.5 N 6 7 3 4 1033.0 1033.4 0.0
28/01:30am 6.9 5.9 5.5 91 0.6 CALM 0 0 0 0 1033.0 1033.4 0.0
28/01:00am 7.4 6.5 6.2 92 0.5 CALM 0 0 0 0 1033.1 1033.5 0.0
28/12:30am 7.4 5.4 6.2 92 0.5 N 6 7 3 4 1033.3 1033.7 0.0
28/12:00am 7.6 5.6 6.1 90 0.7 N 6 7 3 4 1033.3 1033.7 0.0
 
Date/Time
EST
Temp
°C
App
Temp
°C
Dew
Point
Rel
Hum
%
Delta-T
°C
Wind Press
QNH
hPa
Press
MSL
hPa
Rain
since 9 am
mm
Dir
 
Spd
km/h
Gust
km/h
Spd
kts
Gust
kts
27/11:30pm 7.5 6.5 5.6 88 0.9 CALM 0 0 0 0 1033.6 1033.9 0.0
27/11:00pm 7.6 6.6 5.7 88 0.9 CALM 0 0 0 0 1033.7 1034.0 0.0
27/10:30pm 7.8 5.7 5.8 87 0.9 N 6 6 3 3 1033.6 1033.9 0.0
27/10:00pm 7.9 6.6 5.9 87 0.9 N 2 6 1 3 1033.7 1034.0 0.0
27/09:30pm 7.9 5.6 5.7 86 1.0 N 7 7 4 4 1033.7 1034.0 0.0
27/09:00pm 8.0 5.9 5.6 85 1.1 N 6 6 3 3 1033.8 1034.1 0.0
27/08:30pm 8.1 5.9 5.4 83 1.2 N 6 7 3 4 1033.8 1034.1 0.0
27/08:00pm 8.2 6.1 5.7 84 1.1 N 6 6 3 3 1034.0 1034.3 0.0
27/07:30pm 8.0 5.0 6.0 87 0.9 N 11 11 6 6 1033.8 1034.1 0.0
27/07:00pm 8.4 7.5 5.9 84 1.1 CALM 0 0 0 0 1033.8 1034.1 0.0
27/06:30pm 8.5 6.8 6.0 84 1.1 N 4 6 2 3 1033.4 1033.8 0.0
27/06:00pm 8.4 6.2 5.5 82 1.3 N 6 9 3 5 1033.3 1033.7 0.0
27/05:30pm 9.1 8.0 5.3 77 1.7 CALM 0 0 0 0 1033.0 1033.4 0.0
27/05:00pm 9.2 8.0 4.8 74 2.0 CALM 0 0 0 0 1033.1 1033.5 0.0
27/04:30pm 9.4 8.3 5.0 74 2.0 CALM 0 0 0 0 1032.9 1033.3 0.0
27/04:00pm 9.5 8.4 4.9 73 2.1 CALM 0 0 0 0 1032.7 1033.0 0.0
27/03:30pm 9.4 7.0 5.2 75 1.9 N 7 9 4 5 1032.6 1032.9 0.0
27/03:00pm 9.7 7.8 5.1 73 2.1 N 4 9 2 5 1032.5 1032.8 0.0
27/02:30pm 9.5 7.9 4.7 72 2.2 N 2 7 1 4 1032.5 1032.8 0.0
27/02:00pm 9.5 7.3 5.1 74 2.0 N 6 7 3 4 1032.6 1032.9 0.0
27/01:30pm 9.4 8.2 4.6 72 2.2 CALM 0 6 0 3 1032.9 1033.3 0.0
27/01:00pm 9.5 7.2 4.9 73 2.1 N 6 9 3 5 1033.2 1033.6 0.0
27/12:30pm 9.6 7.3 4.8 72 2.2 N 6 9 3 5 1033.6 1033.9 0.0
27/12:00pm 9.7 6.8 4.9 72 2.1 N 9 17 5 9 1033.8 1034.1 0.0
27/11:30am 9.3 7.4 6.6 83 1.3 NNE 6 9 3 5 1034.2 1034.5 0.0
27/11:00am 8.3 6.7 8.2 99 0.0 NNE 6 7 3 4 1034.5 1034.8 0.0
27/10:30am 7.7 7.1 7.6 99 0.0 CALM 0 0 0 0 1034.7 1035.0 0.0
27/10:00am 7.2 5.8 7.1 99 0.0 NNE 4 6 2 3 1034.8 1035.1 0.0
27/09:30am 6.5 5.7 6.4 99 0.0 CALM 0 6 0 3 1034.7 1035.0 0.0
27/09:29am 6.4 5.6 6.3 99 0.0 CALM 0 6 0 3 1034.6 1034.9 0.0

Other Formats:

Comma delimited format used in spreadsheet applications
http://www.bom.gov.au/fwo/IDV60801/IDV60801.94874.axf

JavaScript Object Notation format (JSON) in row-major order
http://www.bom.gov.au/fwo/IDV60801/IDV60801.94874.json